sensor_id;sensor_type;location;lat;lon;timestamp;pressure;altitude;pressure_sealevel;temperature;humidity
64616;BME280;51027;42.162;24.754;2023-04-21T00:01:01;99299.34;;;11.50;100.00
64616;BME280;51027;42.162;24.754;2023-04-21T00:03:28;99307.09;;;11.36;100.00
64616;BME280;51027;42.162;24.754;2023-04-21T00:05:57;99299.00;;;11.39;100.00
64616;BME280;51027;42.162;24.754;2023-04-21T00:08:23;99276.94;;;11.22;100.00
64616;BME280;51027;42.162;24.754;2023-04-21T00:10:51;99301.41;;;11.26;100.00
64616;BME280;51027;42.162;24.754;2023-04-21T00:13:16;99266.94;;;10.93;100.00
64616;BME280;51027;42.162;24.754;2023-04-21T00:15:43;99291.28;;;11.17;100.00
64616;BME280;51027;42.162;24.754;2023-04-21T00:18:08;99292.22;;;11.16;100.00
64616;BME280;51027;42.162;24.754;2023-04-21T00:20:34;99304.06;;;11.07;100.00
64616;BME280;51027;42.162;24.754;2023-04-21T00:23:00;99296.59;;;10.98;100.00
64616;BME280;51027;42.162;24.754;2023-04-21T00:25:26;99261.34;;;10.82;100.00
64616;BME280;51027;42.162;24.754;2023-04-21T00:27:52;99287.59;;;11.02;100.00
64616;BME280;51027;42.162;24.754;2023-04-21T00:30:17;99292.09;;;11.00;100.00
64616;BME280;51027;42.162;24.754;2023-04-21T00:32:42;99293.78;;;11.01;100.00
64616;BME280;51027;42.162;24.754;2023-04-21T00:35:08;99270.47;;;10.75;100.00
64616;BME280;51027;42.162;24.754;2023-04-21T00:37:34;99268.53;;;10.78;100.00
64616;BME280;51027;42.162;24.754;2023-04-21T00:39:59;99277.56;;;10.91;100.00
64616;BME280;51027;42.162;24.754;2023-04-21T00:42:25;99274.16;;;10.89;100.00
64616;BME280;51027;42.162;24.754;2023-04-21T00:44:51;99285.75;;;11.04;100.00
64616;BME280;51027;42.162;24.754;2023-04-21T00:47:17;99284.91;;;11.04;100.00
64616;BME280;51027;42.162;24.754;2023-04-21T00:49:42;99280.53;;;11.03;100.00
64616;BME280;51027;42.162;24.754;2023-04-21T00:52:08;99274.22;;;10.88;100.00
64616;BME280;51027;42.162;24.754;2023-04-21T00:54:37;99286.69;;;10.84;100.00
64616;BME280;51027;42.162;24.754;2023-04-21T00:57:03;99284.06;;;10.84;100.00
64616;BME280;51027;42.162;24.754;2023-04-21T00:59:31;99272.78;;;10.81;100.00
64616;BME280;51027;42.162;24.754;2023-04-21T01:01:57;99277.72;;;10.88;100.00
64616;BME280;51027;42.162;24.754;2023-04-21T01:04:22;99257.56;;;10.68;100.00
64616;BME280;51027;42.162;24.754;2023-04-21T01:06:48;99281.03;;;10.92;100.00
64616;BME280;51027;42.162;24.754;2023-04-21T01:09:13;99277.09;;;10.83;100.00
64616;BME280;51027;42.162;24.754;2023-04-21T01:11:39;99269.88;;;10.68;100.00
64616;BME280;51027;42.162;24.754;2023-04-21T01:14:05;99277.28;;;10.79;100.00
64616;BME280;51027;42.162;24.754;2023-04-21T01:16:31;99240.22;;;10.46;100.00
64616;BME280;51027;42.162;24.754;2023-04-21T01:18:58;99275.72;;;10.56;100.00
64616;BME280;51027;42.162;24.754;2023-04-21T01:21:24;99277.28;;;10.60;100.00
64616;BME280;51027;42.162;24.754;2023-04-21T01:23:51;99231.28;;;10.29;100.00
64616;BME280;51027;42.162;24.754;2023-04-21T01:26:18;99272.59;;;10.48;100.00
64616;BME280;51027;42.162;24.754;2023-04-21T01:28:43;99271.09;;;10.42;100.00
64616;BME280;51027;42.162;24.754;2023-04-21T01:31:09;99272.91;;;10.40;100.00
64616;BME280;51027;42.162;24.754;2023-04-21T01:33:34;99269.94;;;10.48;100.00
64616;BME280;51027;42.162;24.754;2023-04-21T01:36:00;99266.31;;;10.50;100.00
64616;BME280;51027;42.162;24.754;2023-04-21T01:38:26;99267.09;;;10.52;100.00
64616;BME280;51027;42.162;24.754;2023-04-21T01:40:52;99263.19;;;10.61;100.00
64616;BME280;51027;42.162;24.754;2023-04-21T01:43:20;99267.69;;;10.59;100.00
64616;BME280;51027;42.162;24.754;2023-04-21T01:45:47;99271.44;;;10.14;100.00
64616;BME280;51027;42.162;24.754;2023-04-21T01:48:12;99264.94;;;10.42;100.00
64616;BME280;51027;42.162;24.754;2023-04-21T01:50:38;99227.56;;;10.15;100.00
64616;BME280;51027;42.162;24.754;2023-04-21T01:53:03;99264.34;;;10.55;100.00
64616;BME280;51027;42.162;24.754;2023-04-21T01:55:28;99281.00;;;10.56;100.00
64616;BME280;51027;42.162;24.754;2023-04-21T01:57:54;99262.41;;;10.59;100.00
64616;BME280;51027;42.162;24.754;2023-04-21T02:00:22;99283.56;;;10.57;100.00
64616;BME280;51027;42.162;24.754;2023-04-21T02:02:47;99276.56;;;10.56;100.00
64616;BME280;51027;42.162;24.754;2023-04-21T02:05:13;99286.81;;;10.62;100.00
64616;BME280;51027;42.162;24.754;2023-04-21T02:07:38;99277.91;;;10.46;100.00
64616;BME280;51027;42.162;24.754;2023-04-21T02:10:04;99279.81;;;10.24;100.00
64616;BME280;51027;42.162;24.754;2023-04-21T02:12:30;99286.63;;;10.28;100.00
64616;BME280;51027;42.162;24.754;2023-04-21T02:14:55;99282.38;;;10.25;100.00
64616;BME280;51027;42.162;24.754;2023-04-21T02:17:20;99298.69;;;10.13;100.00
64616;BME280;51027;42.162;24.754;2023-04-21T02:19:46;99277.75;;;10.10;100.00
64616;BME280;51027;42.162;24.754;2023-04-21T02:22:12;99269.53;;;9.97;100.00
64616;BME280;51027;42.162;24.754;2023-04-21T02:24:37;99276.63;;;10.16;100.00
64616;BME280;51027;42.162;24.754;2023-04-21T02:27:03;99256.53;;;9.74;100.00
64616;BME280;51027;42.162;24.754;2023-04-21T02:29:29;99263.34;;;9.78;100.00
64616;BME280;51027;42.162;24.754;2023-04-21T02:31:54;99271.47;;;9.94;100.00
64616;BME280;51027;42.162;24.754;2023-04-21T02:34:19;99259.41;;;9.88;100.00
64616;BME280;51027;42.162;24.754;2023-04-21T02:36:45;99271.00;;;9.84;100.00
64616;BME280;51027;42.162;24.754;2023-04-21T02:39:11;99265.72;;;9.64;100.00
64616;BME280;51027;42.162;24.754;2023-04-21T02:41:37;99267.06;;;9.74;100.00
64616;BME280;51027;42.162;24.754;2023-04-21T02:44:03;99264.59;;;9.90;100.00
64616;BME280;51027;42.162;24.754;2023-04-21T02:46:28;99266.59;;;9.85;100.00
64616;BME280;51027;42.162;24.754;2023-04-21T02:48:55;99261.47;;;9.81;100.00
64616;BME280;51027;42.162;24.754;2023-04-21T02:51:20;99259.56;;;9.85;100.00
64616;BME280;51027;42.162;24.754;2023-04-21T02:53:45;99252.97;;;9.75;100.00
64616;BME280;51027;42.162;24.754;2023-04-21T02:56:11;99261.97;;;9.90;100.00
64616;BME280;51027;42.162;24.754;2023-04-21T02:58:36;99260.66;;;10.00;100.00
64616;BME280;51027;42.162;24.754;2023-04-21T03:01:03;99259.88;;;9.98;100.00
64616;BME280;51027;42.162;24.754;2023-04-21T03:03:29;99259.78;;;9.99;100.00
64616;BME280;51027;42.162;24.754;2023-04-21T03:05:59;99264.59;;;9.90;100.00
64616;BME280;51027;42.162;24.754;2023-04-21T03:08:25;99267.38;;;9.87;100.00
64616;BME280;51027;42.162;24.754;2023-04-21T03:10:51;99256.31;;;9.78;100.00
64616;BME280;51027;42.162;24.754;2023-04-21T03:13:16;99275.06;;;9.91;100.00
64616;BME280;51027;42.162;24.754;2023-04-21T03:15:42;99251.66;;;9.65;100.00
64616;BME280;51027;42.162;24.754;2023-04-21T03:18:07;99278.50;;;9.73;100.00
64616;BME280;51027;42.162;24.754;2023-04-21T03:20:33;99273.75;;;9.61;100.00
64616;BME280;51027;42.162;24.754;2023-04-21T03:22:58;99276.03;;;9.68;100.00
64616;BME280;51027;42.162;24.754;2023-04-21T03:25:24;99274.31;;;9.67;100.00
64616;BME280;51027;42.162;24.754;2023-04-21T03:27:54;99275.00;;;9.72;100.00
64616;BME280;51027;42.162;24.754;2023-04-21T03:30:21;99274.31;;;9.67;100.00
64616;BME280;51027;42.162;24.754;2023-04-21T03:32:47;99281.84;;;9.76;100.00
64616;BME280;51027;42.162;24.754;2023-04-21T03:35:12;99269.34;;;9.61;100.00
64616;BME280;51027;42.162;24.754;2023-04-21T03:37:38;99287.63;;;9.64;100.00
64616;BME280;51027;42.162;24.754;2023-04-21T03:40:04;99287.06;;;9.56;100.00
64616;BME280;51027;42.162;24.754;2023-04-21T03:42:33;99291.63;;;9.52;100.00
64616;BME280;51027;42.162;24.754;2023-04-21T03:45:06;99290.88;;;9.49;100.00
64616;BME280;51027;42.162;24.754;2023-04-21T03:47:32;99293.56;;;9.47;100.00
64616;BME280;51027;42.162;24.754;2023-04-21T03:49:57;99294.88;;;9.58;100.00
64616;BME280;51027;42.162;24.754;2023-04-21T03:52:23;99286.16;;;9.57;100.00
64616;BME280;51027;42.162;24.754;2023-04-21T03:54:49;99281.69;;;9.59;100.00
64616;BME280;51027;42.162;24.754;2023-04-21T03:57:15;99287.41;;;9.69;100.00
64616;BME280;51027;42.162;24.754;2023-04-21T03:59:40;99283.53;;;9.77;100.00
64616;BME280;51027;42.162;24.754;2023-04-21T04:02:06;99277.44;;;9.77;100.00
64616;BME280;51027;42.162;24.754;2023-04-21T04:04:31;99243.78;;;9.65;100.00
64616;BME280;51027;42.162;24.754;2023-04-21T04:06:57;99290.41;;;10.02;100.00
64616;BME280;51027;42.162;24.754;2023-04-21T04:09:23;99284.84;;;10.08;100.00
64616;BME280;51027;42.162;24.754;2023-04-21T04:11:48;99289.59;;;10.00;100.00
64616;BME280;51027;42.162;24.754;2023-04-21T04:14:14;99288.94;;;9.95;100.00
64616;BME280;51027;42.162;24.754;2023-04-21T04:16:40;99254.94;;;9.90;100.00
64616;BME280;51027;42.162;24.754;2023-04-21T04:19:06;99295.19;;;10.33;100.00
64616;BME280;51027;42.162;24.754;2023-04-21T04:21:31;99306.09;;;10.44;100.00
64616;BME280;51027;42.162;24.754;2023-04-21T04:23:57;99297.31;;;10.25;100.00
64616;BME280;51027;42.162;24.754;2023-04-21T04:26:23;99299.47;;;10.35;100.00
64616;BME280;51027;42.162;24.754;2023-04-21T04:28:53;99306.38;;;10.38;100.00
64616;BME280;51027;42.162;24.754;2023-04-21T04:31:23;99309.72;;;10.60;100.00
64616;BME280;51027;42.162;24.754;2023-04-21T04:33:52;99309.41;;;10.68;100.00
64616;BME280;51027;42.162;24.754;2023-04-21T04:36:17;99318.25;;;10.86;100.00
64616;BME280;51027;42.162;24.754;2023-04-21T04:38:43;99303.78;;;10.94;100.00
64616;BME280;51027;42.162;24.754;2023-04-21T04:41:10;99299.38;;;10.76;100.00
64616;BME280;51027;42.162;24.754;2023-04-21T04:43:37;99313.41;;;11.32;100.00
64616;BME280;51027;42.162;24.754;2023-04-21T04:46:05;99302.06;;;11.48;100.00
64616;BME280;51027;42.162;24.754;2023-04-21T04:48:33;99331.00;;;11.86;100.00
64616;BME280;51027;42.162;24.754;2023-04-21T04:50:58;99327.81;;;11.97;100.00
64616;BME280;51027;42.162;24.754;2023-04-21T04:53:24;99326.63;;;12.02;100.00
64616;BME280;51027;42.162;24.754;2023-04-21T04:55:51;99328.72;;;12.30;100.00
64616;BME280;51027;42.162;24.754;2023-04-21T04:58:17;99333.91;;;12.15;100.00
64616;BME280;51027;42.162;24.754;2023-04-21T05:00:43;99330.63;;;12.44;100.00
64616;BME280;51027;42.162;24.754;2023-04-21T05:03:08;99337.47;;;12.48;100.00
64616;BME280;51027;42.162;24.754;2023-04-21T05:05:34;99329.28;;;12.53;100.00
64616;BME280;51027;42.162;24.754;2023-04-21T05:07:59;99325.50;;;12.41;100.00
64616;BME280;51027;42.162;24.754;2023-04-21T05:10:25;99324.41;;;12.78;100.00
64616;BME280;51027;42.162;24.754;2023-04-21T05:12:50;99298.13;;;12.75;100.00
64616;BME280;51027;42.162;24.754;2023-04-21T05:15:19;99342.59;;;13.00;100.00
64616;BME280;51027;42.162;24.754;2023-04-21T05:17:47;99341.50;;;13.36;100.00
64616;BME280;51027;42.162;24.754;2023-04-21T05:20:13;99326.16;;;13.42;100.00
64616;BME280;51027;42.162;24.754;2023-04-21T05:22:39;99333.72;;;13.64;100.00
64616;BME280;51027;42.162;24.754;2023-04-21T05:25:05;99299.84;;;12.76;100.00
64616;BME280;51027;42.162;24.754;2023-04-21T05:27:31;99333.91;;;12.98;100.00
64616;BME280;51027;42.162;24.754;2023-04-21T05:29:58;99326.34;;;13.23;100.00
64616;BME280;51027;42.162;24.754;2023-04-21T05:32:23;99318.56;;;13.36;100.00
64616;BME280;51027;42.162;24.754;2023-04-21T05:34:49;99325.31;;;13.42;100.00
64616;BME280;51027;42.162;24.754;2023-04-21T05:37:15;99315.56;;;13.26;100.00
64616;BME280;51027;42.162;24.754;2023-04-21T05:39:40;99339.00;;;13.80;100.00
64616;BME280;51027;42.162;24.754;2023-04-21T05:42:08;99331.81;;;13.82;100.00
64616;BME280;51027;42.162;24.754;2023-04-21T05:44:34;99325.81;;;13.78;100.00
64616;BME280;51027;42.162;24.754;2023-04-21T05:46:59;99327.28;;;13.84;100.00
64616;BME280;51027;42.162;24.754;2023-04-21T05:49:25;99323.44;;;14.04;100.00
64616;BME280;51027;42.162;24.754;2023-04-21T05:51:50;99322.41;;;14.06;100.00
64616;BME280;51027;42.162;24.754;2023-04-21T05:54:15;99315.63;;;14.17;100.00
64616;BME280;51027;42.162;24.754;2023-04-21T05:56:41;99298.88;;;14.16;100.00
64616;BME280;51027;42.162;24.754;2023-04-21T05:59:06;99317.88;;;14.67;100.00
64616;BME280;51027;42.162;24.754;2023-04-21T06:01:32;99312.69;;;14.65;100.00
64616;BME280;51027;42.162;24.754;2023-04-21T06:03:57;99315.22;;;14.95;100.00
64616;BME280;51027;42.162;24.754;2023-04-21T06:06:26;99313.81;;;14.76;100.00
64616;BME280;51027;42.162;24.754;2023-04-21T06:08:55;99310.44;;;15.15;100.00
64616;BME280;51027;42.162;24.754;2023-04-21T06:11:31;99289.84;;;14.77;100.00
64616;BME280;51027;42.162;24.754;2023-04-21T06:13:58;99312.56;;;14.95;100.00
64616;BME280;51027;42.162;24.754;2023-04-21T06:16:26;99309.63;;;14.86;99.57
64616;BME280;51027;42.162;24.754;2023-04-21T06:18:56;99311.91;;;15.33;97.55
64616;BME280;51027;42.162;24.754;2023-04-21T06:21:23;99317.25;;;15.19;76.06
64616;BME280;51027;42.162;24.754;2023-04-21T06:23:49;99315.38;;;15.48;76.42
64616;BME280;51027;42.162;24.754;2023-04-21T06:26:18;99302.66;;;15.53;73.69
64616;BME280;51027;42.162;24.754;2023-04-21T06:28:46;99301.28;;;15.87;73.52
64616;BME280;51027;42.162;24.754;2023-04-21T06:31:13;99305.72;;;15.74;71.69
64616;BME280;51027;42.162;24.754;2023-04-21T06:33:43;99249.06;;;15.61;71.38
64616;BME280;51027;42.162;24.754;2023-04-21T06:36:08;99260.59;;;15.60;71.15
64616;BME280;51027;42.162;24.754;2023-04-21T06:38:33;99298.06;;;15.69;69.47
64616;BME280;51027;42.162;24.754;2023-04-21T06:40:59;99293.09;;;15.77;68.27
64616;BME280;51027;42.162;24.754;2023-04-21T06:43:25;99288.88;;;16.13;67.99
64616;BME280;51027;42.162;24.754;2023-04-21T06:45:50;99292.41;;;16.26;67.90
64616;BME280;51027;42.162;24.754;2023-04-21T06:48:15;99296.03;;;16.25;67.53
64616;BME280;51027;42.162;24.754;2023-04-21T06:50:41;99299.31;;;16.16;67.74
64616;BME280;51027;42.162;24.754;2023-04-21T06:53:09;99294.44;;;16.48;68.10
64616;BME280;51027;42.162;24.754;2023-04-21T06:55:35;99305.47;;;16.55;66.28
64616;BME280;51027;42.162;24.754;2023-04-21T06:58:01;99300.78;;;16.33;66.68
64616;BME280;51027;42.162;24.754;2023-04-21T07:00:26;99301.22;;;16.39;66.54
64616;BME280;51027;42.162;24.754;2023-04-21T07:02:52;99320.69;;;16.65;65.98
64616;BME280;51027;42.162;24.754;2023-04-21T07:05:17;99293.34;;;16.63;65.49
64616;BME280;51027;42.162;24.754;2023-04-21T07:07:43;99306.88;;;16.86;65.05
64616;BME280;51027;42.162;24.754;2023-04-21T07:10:08;99309.19;;;16.90;64.77
64616;BME280;51027;42.162;24.754;2023-04-21T07:12:34;99313.97;;;16.85;64.68
64616;BME280;51027;42.162;24.754;2023-04-21T07:14:59;99303.88;;;16.90;64.90
64616;BME280;51027;42.162;24.754;2023-04-21T07:17:25;99316.53;;;16.74;65.61
64616;BME280;51027;42.162;24.754;2023-04-21T07:19:50;99309.88;;;17.18;65.03
64616;BME280;51027;42.162;24.754;2023-04-21T07:22:15;99298.13;;;16.84;64.96
64616;BME280;51027;42.162;24.754;2023-04-21T07:24:41;99276.13;;;16.82;64.36
64616;BME280;51027;42.162;24.754;2023-04-21T07:27:06;99299.66;;;17.12;64.71
64616;BME280;51027;42.162;24.754;2023-04-21T07:29:32;99287.97;;;17.62;64.25
64616;BME280;51027;42.162;24.754;2023-04-21T07:31:57;99297.34;;;18.03;63.88
64616;BME280;51027;42.162;24.754;2023-04-21T07:34:23;99293.97;;;18.01;62.18
64616;BME280;51027;42.162;24.754;2023-04-21T07:36:50;99287.75;;;17.89;62.40
64616;BME280;51027;42.162;24.754;2023-04-21T07:39:16;99284.13;;;17.90;61.53
64616;BME280;51027;42.162;24.754;2023-04-21T07:41:41;99292.97;;;17.91;61.08
64616;BME280;51027;42.162;24.754;2023-04-21T07:44:06;99287.56;;;18.26;60.36
64616;BME280;51027;42.162;24.754;2023-04-21T07:46:32;99276.94;;;17.79;61.32
64616;BME280;51027;42.162;24.754;2023-04-21T07:48:58;99299.22;;;18.25;61.08
64616;BME280;51027;42.162;24.754;2023-04-21T07:51:25;99305.41;;;18.36;60.92
64616;BME280;51027;42.162;24.754;2023-04-21T07:53:52;99302.16;;;18.33;60.85
64616;BME280;51027;42.162;24.754;2023-04-21T07:56:17;99295.38;;;18.62;58.01
64616;BME280;51027;42.162;24.754;2023-04-21T07:58:43;99293.59;;;18.74;56.93
64616;BME280;51027;42.162;24.754;2023-04-21T08:01:08;99298.81;;;18.76;57.01
64616;BME280;51027;42.162;24.754;2023-04-21T08:03:33;99268.34;;;18.45;59.24
64616;BME280;51027;42.162;24.754;2023-04-21T08:05:59;99291.28;;;18.92;58.80
64616;BME280;51027;42.162;24.754;2023-04-21T08:08:24;99286.66;;;18.60;57.80
64616;BME280;51027;42.162;24.754;2023-04-21T08:10:50;99284.81;;;18.38;57.66
64616;BME280;51027;42.162;24.754;2023-04-21T08:13:15;99289.50;;;19.36;55.39
64616;BME280;51027;42.162;24.754;2023-04-21T08:15:41;99264.09;;;19.52;54.19
64616;BME280;51027;42.162;24.754;2023-04-21T08:18:07;99298.63;;;19.33;53.48
64616;BME280;51027;42.162;24.754;2023-04-21T08:20:33;99284.97;;;19.47;52.81
64616;BME280;51027;42.162;24.754;2023-04-21T08:22:58;99280.81;;;19.66;52.08
64616;BME280;51027;42.162;24.754;2023-04-21T08:25:24;99225.22;;;19.16;52.58
64616;BME280;51027;42.162;24.754;2023-04-21T08:27:49;99277.59;;;20.04;51.52
64616;BME280;51027;42.162;24.754;2023-04-21T08:30:15;99271.72;;;20.31;49.98
64616;BME280;51027;42.162;24.754;2023-04-21T08:32:40;99277.34;;;20.07;49.18
64616;BME280;51027;42.162;24.754;2023-04-21T08:35:07;99266.72;;;19.96;48.80
64616;BME280;51027;42.162;24.754;2023-04-21T08:37:35;99287.75;;;20.31;48.13
64616;BME280;51027;42.162;24.754;2023-04-21T08:40:05;99277.69;;;20.13;48.82
64616;BME280;51027;42.162;24.754;2023-04-21T08:42:32;99262.47;;;20.14;49.26
64616;BME280;51027;42.162;24.754;2023-04-21T08:44:57;99275.47;;;20.70;47.75
64616;BME280;51027;42.162;24.754;2023-04-21T08:47:23;99266.97;;;20.95;47.75
64616;BME280;51027;42.162;24.754;2023-04-21T08:49:50;99273.47;;;21.12;47.42
64616;BME280;51027;42.162;24.754;2023-04-21T08:52:16;99272.44;;;20.94;46.34
64616;BME280;51027;42.162;24.754;2023-04-21T08:54:42;99280.78;;;20.39;48.03
64616;BME280;51027;42.162;24.754;2023-04-21T08:57:07;99281.38;;;20.43;47.67
64616;BME280;51027;42.162;24.754;2023-04-21T08:59:33;99271.06;;;20.99;46.98
64616;BME280;51027;42.162;24.754;2023-04-21T09:02:15;99251.50;;;20.68;46.04
64616;BME280;51027;42.162;24.754;2023-04-21T09:04:46;99260.88;;;21.63;45.49
64616;BME280;51027;42.162;24.754;2023-04-21T09:07:29;99261.00;;;20.82;45.51
64616;BME280;51027;42.162;24.754;2023-04-21T09:09:56;99256.66;;;21.41;45.14
64616;BME280;51027;42.162;24.754;2023-04-21T09:12:22;99251.31;;;21.70;44.71
64616;BME280;51027;42.162;24.754;2023-04-21T09:14:47;99244.09;;;21.51;44.35
64616;BME280;51027;42.162;24.754;2023-04-21T09:17:15;99238.44;;;21.73;43.95
64616;BME280;51027;42.162;24.754;2023-04-21T09:19:41;99236.81;;;22.38;43.22
64616;BME280;51027;42.162;24.754;2023-04-21T09:22:06;99234.59;;;22.05;42.77
64616;BME280;51027;42.162;24.754;2023-04-21T09:24:32;99225.03;;;21.93;43.01
64616;BME280;51027;42.162;24.754;2023-04-21T09:26:57;99227.16;;;21.89;42.79
64616;BME280;51027;42.162;24.754;2023-04-21T09:29:24;99226.75;;;22.50;42.57
64616;BME280;51027;42.162;24.754;2023-04-21T09:31:50;99225.47;;;22.82;41.86
64616;BME280;51027;42.162;24.754;2023-04-21T09:34:20;99216.19;;;23.39;41.54
64616;BME280;51027;42.162;24.754;2023-04-21T09:36:46;99209.75;;;22.59;41.25
64616;BME280;51027;42.162;24.754;2023-04-21T09:39:13;99212.19;;;22.80;41.76
64616;BME280;51027;42.162;24.754;2023-04-21T09:41:38;99222.69;;;22.74;41.35
64616;BME280;51027;42.162;24.754;2023-04-21T09:44:04;99222.88;;;22.25;41.20
64616;BME280;51027;42.162;24.754;2023-04-21T09:46:34;99219.38;;;21.86;41.71
64616;BME280;51027;42.162;24.754;2023-04-21T09:49:00;99220.13;;;21.40;41.63
64616;BME280;51027;42.162;24.754;2023-04-21T09:51:28;99210.56;;;21.56;42.36
64616;BME280;51027;42.162;24.754;2023-04-21T09:53:58;99215.81;;;22.24;41.52
64616;BME280;51027;42.162;24.754;2023-04-21T09:56:24;99210.69;;;22.68;40.74
64616;BME280;51027;42.162;24.754;2023-04-21T09:58:56;99199.53;;;23.00;39.77
64616;BME280;51027;42.162;24.754;2023-04-21T10:01:25;99200.22;;;23.02;40.80
64616;BME280;51027;42.162;24.754;2023-04-21T10:03:51;99184.31;;;23.09;39.38
64616;BME280;51027;42.162;24.754;2023-04-21T10:06:18;99193.66;;;22.87;39.34
64616;BME280;51027;42.162;24.754;2023-04-21T10:08:44;99191.41;;;23.27;39.31
64616;BME280;51027;42.162;24.754;2023-04-21T10:11:11;99185.88;;;23.11;38.94
64616;BME280;51027;42.162;24.754;2023-04-21T10:13:37;99184.75;;;23.32;38.76
64616;BME280;51027;42.162;24.754;2023-04-21T10:16:07;99183.75;;;23.50;39.30
64616;BME280;51027;42.162;24.754;2023-04-21T10:18:37;99190.56;;;23.09;38.72
64616;BME280;51027;42.162;24.754;2023-04-21T10:21:06;99172.50;;;23.37;38.02
64616;BME280;51027;42.162;24.754;2023-04-21T10:23:41;99162.81;;;22.36;38.53
64616;BME280;51027;42.162;24.754;2023-04-21T10:31:19;99166.59;;;23.51;37.36
64616;BME280;51027;42.162;24.754;2023-04-21T10:39:25;99146.97;;;24.71;36.00
64616;BME280;51027;42.162;24.754;2023-04-21T10:41:54;99157.94;;;24.01;37.15
64616;BME280;51027;42.162;24.754;2023-04-21T10:44:22;99158.66;;;22.79;36.00
64616;BME280;51027;42.162;24.754;2023-04-21T10:46:50;99167.97;;;22.47;38.10
64616;BME280;51027;42.162;24.754;2023-04-21T10:54:25;99171.91;;;21.40;40.43
64616;BME280;51027;42.162;24.754;2023-04-21T10:56:52;99160.34;;;21.39;40.75
64616;BME280;51027;42.162;24.754;2023-04-21T10:59:19;99172.28;;;20.96;41.89
64616;BME280;51027;42.162;24.754;2023-04-21T11:01:44;99169.63;;;20.47;42.32
64616;BME280;51027;42.162;24.754;2023-04-21T11:04:14;99168.44;;;20.80;42.88
64616;BME280;51027;42.162;24.754;2023-04-21T11:06:39;99155.47;;;20.75;43.32
64616;BME280;51027;42.162;24.754;2023-04-21T11:09:05;99172.22;;;20.77;43.51
64616;BME280;51027;42.162;24.754;2023-04-21T11:11:31;99161.81;;;20.74;43.46
64616;BME280;51027;42.162;24.754;2023-04-21T11:13:58;99166.44;;;20.82;42.04
64616;BME280;51027;42.162;24.754;2023-04-21T11:16:25;99167.34;;;21.02;42.35
64616;BME280;51027;42.162;24.754;2023-04-21T11:18:51;99165.69;;;21.49;42.46
64616;BME280;51027;42.162;24.754;2023-04-21T11:21:18;99166.53;;;21.30;41.94
64616;BME280;51027;42.162;24.754;2023-04-21T11:23:55;99170.69;;;23.02;39.93
64616;BME280;51027;42.162;24.754;2023-04-21T11:26:36;99150.41;;;21.78;41.12
64616;BME280;51027;42.162;24.754;2023-04-21T11:29:08;99169.22;;;22.90;39.85
64616;BME280;51027;42.162;24.754;2023-04-21T11:31:35;99165.84;;;23.23;39.87
64616;BME280;51027;42.162;24.754;2023-04-21T11:34:01;99167.00;;;22.48;39.74
64616;BME280;51027;42.162;24.754;2023-04-21T11:36:41;99171.88;;;22.25;40.69
64616;BME280;51027;42.162;24.754;2023-04-21T11:39:11;99168.53;;;22.04;41.07
64616;BME280;51027;42.162;24.754;2023-04-21T11:41:39;99165.34;;;21.91;41.95
64616;BME280;51027;42.162;24.754;2023-04-21T11:44:06;99152.31;;;21.39;41.74
64616;BME280;51027;42.162;24.754;2023-04-21T11:46:31;99166.41;;;21.41;42.49
64616;BME280;51027;42.162;24.754;2023-04-21T11:51:34;99162.56;;;21.63;41.31
64616;BME280;51027;42.162;24.754;2023-04-21T11:54:01;99150.28;;;21.12;41.79
64616;BME280;51027;42.162;24.754;2023-04-21T11:56:26;99158.19;;;21.14;41.49
64616;BME280;51027;42.162;24.754;2023-04-21T11:58:52;99147.63;;;21.22;41.97
64616;BME280;51027;42.162;24.754;2023-04-21T12:01:19;99150.13;;;21.14;41.96
64616;BME280;51027;42.162;24.754;2023-04-21T12:03:52;99155.03;;;21.86;41.21
64616;BME280;51027;42.162;24.754;2023-04-21T12:06:22;99164.59;;;22.18;40.54
64616;BME280;51027;42.162;24.754;2023-04-21T12:08:53;99153.44;;;22.50;40.05
64616;BME280;51027;42.162;24.754;2023-04-21T12:11:19;99154.25;;;23.59;38.75
64616;BME280;51027;42.162;24.754;2023-04-21T12:13:45;99145.25;;;23.94;36.74
64616;BME280;51027;42.162;24.754;2023-04-21T12:16:11;99146.50;;;24.07;37.22
64616;BME280;51027;42.162;24.754;2023-04-21T12:18:37;99147.00;;;24.03;37.13
64616;BME280;51027;42.162;24.754;2023-04-21T12:21:02;99138.69;;;23.70;36.97
64616;BME280;51027;42.162;24.754;2023-04-21T12:23:28;99142.66;;;22.59;39.17
64616;BME280;51027;42.162;24.754;2023-04-21T12:25:53;99143.38;;;22.52;39.22
64616;BME280;51027;42.162;24.754;2023-04-21T12:28:19;99148.78;;;22.05;40.22
64616;BME280;51027;42.162;24.754;2023-04-21T12:30:45;99151.28;;;22.53;40.15
64616;BME280;51027;42.162;24.754;2023-04-21T12:33:10;99146.84;;;22.07;40.68
64616;BME280;51027;42.162;24.754;2023-04-21T12:35:36;99142.00;;;21.35;40.53
64616;BME280;51027;42.162;24.754;2023-04-21T12:38:02;99169.03;;;21.22;40.89
64616;BME280;51027;42.162;24.754;2023-04-21T12:40:27;99164.69;;;20.52;43.74
64616;BME280;51027;42.162;24.754;2023-04-21T12:42:53;99178.66;;;19.73;46.65
64616;BME280;51027;42.162;24.754;2023-04-21T12:45:18;99184.22;;;19.17;53.55
64616;BME280;51027;42.162;24.754;2023-04-21T12:47:44;99199.13;;;18.65;57.46
64616;BME280;51027;42.162;24.754;2023-04-21T12:50:09;99191.13;;;18.09;58.12
64616;BME280;51027;42.162;24.754;2023-04-21T12:52:35;99189.91;;;17.67;58.16
64616;BME280;51027;42.162;24.754;2023-04-21T12:55:01;99175.38;;;17.60;57.58
64616;BME280;51027;42.162;24.754;2023-04-21T12:57:27;99167.59;;;17.57;60.64
64616;BME280;51027;42.162;24.754;2023-04-21T12:59:53;99159.50;;;18.27;57.00